sensor_id;sensor_type;location;lat;lon;timestamp;pressure;altitude;pressure_sealevel;temperature;humidity
50430;BME280;36359;41.556;-8.418;2022-09-03T00:02:42;100051.50;;;21.53;62.74
50430;BME280;36359;41.556;-8.418;2022-09-03T00:08:32;100055.63;;;21.19;61.36
50430;BME280;36359;41.556;-8.418;2022-09-03T00:13:39;100051.06;;;21.06;61.82
50430;BME280;36359;41.556;-8.418;2022-09-03T00:16:11;100041.09;;;20.48;62.82
50430;BME280;36359;41.556;-8.418;2022-09-03T00:18:48;100048.81;;;20.33;64.52
50430;BME280;36359;41.556;-8.418;2022-09-03T00:21:21;100043.66;;;20.43;64.96
50430;BME280;36359;41.556;-8.418;2022-09-03T00:23:51;100052.53;;;21.08;64.43
50430;BME280;36359;41.556;-8.418;2022-09-03T00:26:25;100050.38;;;21.36;62.48
50430;BME280;36359;41.556;-8.418;2022-09-03T00:31:24;100045.47;;;21.44;62.99
50430;BME280;36359;41.556;-8.418;2022-09-03T00:34:09;100049.72;;;20.90;61.76
50430;BME280;36359;41.556;-8.418;2022-09-03T00:44:54;100046.56;;;19.45;66.80
50430;BME280;36359;41.556;-8.418;2022-09-03T00:47:35;100049.78;;;19.22;68.06
50430;BME280;36359;41.556;-8.418;2022-09-03T00:53:17;100054.22;;;18.96;70.02
50430;BME280;36359;41.556;-8.418;2022-09-03T00:55:57;100043.63;;;19.26;70.15
50430;BME280;36359;41.556;-8.418;2022-09-03T01:01:06;100038.31;;;19.32;68.03
50430;BME280;36359;41.556;-8.418;2022-09-03T01:04:07;100040.25;;;19.04;68.84
50430;BME280;36359;41.556;-8.418;2022-09-03T01:06:52;100042.94;;;19.71;69.51
50430;BME280;36359;41.556;-8.418;2022-09-03T01:12:02;100040.41;;;20.59;64.75
50430;BME280;36359;41.556;-8.418;2022-09-03T01:30:56;100025.47;;;20.74;65.01
50430;BME280;36359;41.556;-8.418;2022-09-03T01:33:33;100023.03;;;20.14;64.50
50430;BME280;36359;41.556;-8.418;2022-09-03T01:38:52;100024.78;;;19.37;66.35
50430;BME280;36359;41.556;-8.418;2022-09-03T01:46:51;100014.97;;;19.67;68.21
50430;BME280;36359;41.556;-8.418;2022-09-03T01:49:55;100006.91;;;20.17;67.43
50430;BME280;36359;41.556;-8.418;2022-09-03T01:58:32;99999.84;;;19.18;66.54
50430;BME280;36359;41.556;-8.418;2022-09-03T02:01:13;100004.31;;;18.93;67.67
50430;BME280;36359;41.556;-8.418;2022-09-03T02:03:42;100002.69;;;19.70;68.77
50430;BME280;36359;41.556;-8.418;2022-09-03T02:06:10;100004.63;;;19.69;65.97
50430;BME280;36359;41.556;-8.418;2022-09-03T02:08:37;100004.13;;;19.79;66.47
50430;BME280;36359;41.556;-8.418;2022-09-03T02:11:05;100001.16;;;20.26;67.13
50430;BME280;36359;41.556;-8.418;2022-09-03T02:13:49;99991.72;;;19.50;67.83
50430;BME280;36359;41.556;-8.418;2022-09-03T02:16:29;99999.09;;;19.63;68.87
50430;BME280;36359;41.556;-8.418;2022-09-03T02:19:03;99999.53;;;19.66;67.62
50430;BME280;36359;41.556;-8.418;2022-09-03T02:21:35;100001.22;;;19.61;66.97
50430;BME280;36359;41.556;-8.418;2022-09-03T02:24:03;99996.06;;;19.13;67.22
50430;BME280;36359;41.556;-8.418;2022-09-03T02:26:30;99996.25;;;18.71;68.40
50430;BME280;36359;41.556;-8.418;2022-09-03T02:28:56;100001.38;;;18.74;70.12
50430;BME280;36359;41.556;-8.418;2022-09-03T02:31:22;99996.03;;;18.53;70.22
50430;BME280;36359;41.556;-8.418;2022-09-03T02:33:49;100006.84;;;19.01;71.47
50430;BME280;36359;41.556;-8.418;2022-09-03T02:36:23;100002.81;;;19.10;68.80
50430;BME280;36359;41.556;-8.418;2022-09-03T02:38:51;100002.91;;;19.62;69.49
50430;BME280;36359;41.556;-8.418;2022-09-03T02:41:16;100009.91;;;20.16;67.59
50430;BME280;36359;41.556;-8.418;2022-09-03T02:46:47;100010.31;;;19.61;68.94
50430;BME280;36359;41.556;-8.418;2022-09-03T02:49:14;100012.50;;;20.04;67.40
50430;BME280;36359;41.556;-8.418;2022-09-03T02:51:42;100001.75;;;20.34;67.03
50430;BME280;36359;41.556;-8.418;2022-09-03T02:54:09;100013.09;;;20.83;64.97
50430;BME280;36359;41.556;-8.418;2022-09-03T02:56:36;100016.56;;;20.72;62.95
50430;BME280;36359;41.556;-8.418;2022-09-03T02:59:03;100016.63;;;20.27;64.84
50430;BME280;36359;41.556;-8.418;2022-09-03T03:01:30;100006.94;;;20.49;65.42
50430;BME280;36359;41.556;-8.418;2022-09-03T03:03:55;100012.56;;;20.36;64.98
50430;BME280;36359;41.556;-8.418;2022-09-03T03:06:21;100008.66;;;20.43;65.89
50430;BME280;36359;41.556;-8.418;2022-09-03T03:08:48;100014.94;;;20.26;63.56
50430;BME280;36359;41.556;-8.418;2022-09-03T03:11:21;100008.31;;;19.95;63.54
50430;BME280;36359;41.556;-8.418;2022-09-03T03:13:47;100016.91;;;19.47;66.31
50430;BME280;36359;41.556;-8.418;2022-09-03T03:16:15;100022.84;;;19.44;66.40
50430;BME280;36359;41.556;-8.418;2022-09-03T03:18:41;100014.03;;;19.15;67.97
50430;BME280;36359;41.556;-8.418;2022-09-03T03:21:13;100016.09;;;20.05;66.50
50430;BME280;36359;41.556;-8.418;2022-09-03T03:23:39;100023.69;;;20.16;64.91
50430;BME280;36359;41.556;-8.418;2022-09-03T03:26:08;100019.41;;;19.62;65.01
50430;BME280;36359;41.556;-8.418;2022-09-03T03:28:34;100020.88;;;19.78;66.87
50430;BME280;36359;41.556;-8.418;2022-09-03T03:31:12;100022.81;;;19.70;64.80
50430;BME280;36359;41.556;-8.418;2022-09-03T03:33:38;100026.31;;;19.13;66.12
50430;BME280;36359;41.556;-8.418;2022-09-03T03:36:14;100037.31;;;18.86;68.92
50430;BME280;36359;41.556;-8.418;2022-09-03T03:38:41;100036.88;;;18.76;67.99
50430;BME280;36359;41.556;-8.418;2022-09-03T03:41:11;100032.34;;;18.35;69.88
50430;BME280;36359;41.556;-8.418;2022-09-03T03:43:37;100026.66;;;18.36;70.75
50430;BME280;36359;41.556;-8.418;2022-09-03T03:46:04;100021.63;;;19.26;70.13
50430;BME280;36359;41.556;-8.418;2022-09-03T03:48:31;100020.22;;;19.82;66.61
50430;BME280;36359;41.556;-8.418;2022-09-03T03:51:00;100021.00;;;19.11;67.62
50430;BME280;36359;41.556;-8.418;2022-09-03T03:53:29;100027.06;;;18.47;68.93
50430;BME280;36359;41.556;-8.418;2022-09-03T03:55:59;100019.97;;;18.92;70.29
50430;BME280;36359;41.556;-8.418;2022-09-03T03:58:28;100021.66;;;19.13;67.86
50430;BME280;36359;41.556;-8.418;2022-09-03T04:00:54;100023.59;;;19.84;67.68
50430;BME280;36359;41.556;-8.418;2022-09-03T04:03:20;100015.47;;;19.38;67.62
50430;BME280;36359;41.556;-8.418;2022-09-03T04:05:56;100018.63;;;19.48;66.40
50430;BME280;36359;41.556;-8.418;2022-09-03T04:08:24;100018.22;;;20.03;66.83
50430;BME280;36359;41.556;-8.418;2022-09-03T04:10:50;100022.88;;;20.40;65.32
50430;BME280;36359;41.556;-8.418;2022-09-03T04:13:16;100022.44;;;20.05;64.15
50430;BME280;36359;41.556;-8.418;2022-09-03T04:15:42;100014.88;;;20.01;66.07
50430;BME280;36359;41.556;-8.418;2022-09-03T04:18:08;100022.06;;;19.30;67.64
50430;BME280;36359;41.556;-8.418;2022-09-03T04:20:35;100008.75;;;19.07;67.65
50430;BME280;36359;41.556;-8.418;2022-09-03T04:23:06;100024.97;;;18.49;68.45
50430;BME280;36359;41.556;-8.418;2022-09-03T04:25:32;100017.59;;;18.63;72.04
50430;BME280;36359;41.556;-8.418;2022-09-03T04:27:57;100013.06;;;19.61;68.45
50430;BME280;36359;41.556;-8.418;2022-09-03T04:30:23;100008.03;;;20.10;66.17
50430;BME280;36359;41.556;-8.418;2022-09-03T04:32:49;100008.84;;;20.55;65.01
50430;BME280;36359;41.556;-8.418;2022-09-03T04:35:22;100008.53;;;20.32;64.28
50430;BME280;36359;41.556;-8.418;2022-09-03T04:37:49;99998.25;;;20.52;63.89
50430;BME280;36359;41.556;-8.418;2022-09-03T04:40:16;100002.31;;;20.43;64.18
50430;BME280;36359;41.556;-8.418;2022-09-03T04:42:42;100011.91;;;19.95;63.98
50430;BME280;36359;41.556;-8.418;2022-09-03T04:45:08;100009.66;;;19.86;65.93
50430;BME280;36359;41.556;-8.418;2022-09-03T04:47:36;100006.69;;;19.81;66.11
50430;BME280;36359;41.556;-8.418;2022-09-03T04:50:05;100003.03;;;19.09;66.30
50430;BME280;36359;41.556;-8.418;2022-09-03T04:52:31;100003.44;;;18.59;69.23
50430;BME280;36359;41.556;-8.418;2022-09-03T04:55:03;100005.97;;;18.54;70.19
50430;BME280;36359;41.556;-8.418;2022-09-03T04:57:29;99991.19;;;19.08;68.86
50430;BME280;36359;41.556;-8.418;2022-09-03T04:59:59;100002.06;;;19.74;67.36
50430;BME280;36359;41.556;-8.418;2022-09-03T05:02:24;100005.63;;;20.27;64.75
50430;BME280;36359;41.556;-8.418;2022-09-03T05:04:50;99999.75;;;19.71;65.08
50430;BME280;36359;41.556;-8.418;2022-09-03T05:07:17;99997.53;;;18.82;65.65
50430;BME280;36359;41.556;-8.418;2022-09-03T05:09:45;100002.53;;;18.12;68.24
50430;BME280;36359;41.556;-8.418;2022-09-03T05:12:11;100007.13;;;18.05;70.05
50430;BME280;36359;41.556;-8.418;2022-09-03T05:14:37;100004.03;;;17.73;69.98
50430;BME280;36359;41.556;-8.418;2022-09-03T05:17:03;100010.44;;;17.45;70.83
50430;BME280;36359;41.556;-8.418;2022-09-03T05:19:29;100010.13;;;17.27;72.73
50430;BME280;36359;41.556;-8.418;2022-09-03T05:21:56;100003.97;;;17.60;72.19
50430;BME280;36359;41.556;-8.418;2022-09-03T05:24:21;100005.91;;;17.31;72.19
50430;BME280;36359;41.556;-8.418;2022-09-03T05:26:47;100010.97;;;16.99;72.86
50430;BME280;36359;41.556;-8.418;2022-09-03T05:29:13;100008.47;;;17.05;73.04
50430;BME280;36359;41.556;-8.418;2022-09-03T05:31:40;100024.25;;;18.00;72.68
50430;BME280;36359;41.556;-8.418;2022-09-03T05:34:06;100015.78;;;18.02;68.56
50430;BME280;36359;41.556;-8.418;2022-09-03T05:36:35;100020.50;;;18.41;71.63
50430;BME280;36359;41.556;-8.418;2022-09-03T05:39:03;100020.56;;;19.27;69.46
50430;BME280;36359;41.556;-8.418;2022-09-03T05:41:29;100009.66;;;19.86;67.30
50430;BME280;36359;41.556;-8.418;2022-09-03T05:43:56;100014.97;;;20.19;63.69
50430;BME280;36359;41.556;-8.418;2022-09-03T05:46:27;100024.59;;;18.72;64.09
50430;BME280;36359;41.556;-8.418;2022-09-03T05:49:00;100022.91;;;18.71;68.14
50430;BME280;36359;41.556;-8.418;2022-09-03T05:51:33;100020.00;;;17.98;67.49
50430;BME280;36359;41.556;-8.418;2022-09-03T05:53:59;100016.78;;;17.53;69.14
50430;BME280;36359;41.556;-8.418;2022-09-03T05:56:27;100017.22;;;17.15;69.75
50430;BME280;36359;41.556;-8.418;2022-09-03T05:58:56;100028.56;;;17.12;72.34
50430;BME280;36359;41.556;-8.418;2022-09-03T06:01:24;100024.59;;;16.86;72.70
50430;BME280;36359;41.556;-8.418;2022-09-03T06:06:24;100034.06;;;18.43;69.23
50430;BME280;36359;41.556;-8.418;2022-09-03T06:08:53;100030.72;;;17.86;69.31
50430;BME280;36359;41.556;-8.418;2022-09-03T06:11:20;100040.47;;;17.95;70.75
50430;BME280;36359;41.556;-8.418;2022-09-03T06:13:47;100037.66;;;18.43;71.54
50430;BME280;36359;41.556;-8.418;2022-09-03T06:16:13;100039.84;;;18.81;69.24
50430;BME280;36359;41.556;-8.418;2022-09-03T06:18:40;100030.34;;;18.77;66.83
50430;BME280;36359;41.556;-8.418;2022-09-03T06:21:06;100038.25;;;18.32;66.98
50430;BME280;36359;41.556;-8.418;2022-09-03T06:23:33;100040.97;;;18.25;68.34
50430;BME280;36359;41.556;-8.418;2022-09-03T06:26:10;100037.34;;;17.70;69.71
50430;BME280;36359;41.556;-8.418;2022-09-03T06:28:39;100046.94;;;17.46;71.14
50430;BME280;36359;41.556;-8.418;2022-09-03T06:31:07;100045.81;;;17.68;70.36
50430;BME280;36359;41.556;-8.418;2022-09-03T06:33:35;100039.06;;;17.08;71.44
50430;BME280;36359;41.556;-8.418;2022-09-03T06:36:03;100049.72;;;16.96;71.89
50430;BME280;36359;41.556;-8.418;2022-09-03T06:38:31;100056.28;;;16.74;73.25
50430;BME280;36359;41.556;-8.418;2022-09-03T06:40:59;100059.81;;;16.68;74.39
50430;BME280;36359;41.556;-8.418;2022-09-03T06:43:27;100062.03;;;17.35;74.26
50430;BME280;36359;41.556;-8.418;2022-09-03T06:45:55;100062.22;;;17.62;71.72
50430;BME280;36359;41.556;-8.418;2022-09-03T06:48:21;100060.00;;;17.79;71.66
50430;BME280;36359;41.556;-8.418;2022-09-03T06:51:01;100067.34;;;17.71;71.06
50430;BME280;36359;41.556;-8.418;2022-09-03T06:53:33;100073.50;;;18.22;70.04
50430;BME280;36359;41.556;-8.418;2022-09-03T06:56:01;100077.41;;;18.54;69.69
50430;BME280;36359;41.556;-8.418;2022-09-03T06:58:32;100079.41;;;19.06;67.83
50430;BME280;36359;41.556;-8.418;2022-09-03T07:01:09;100084.88;;;19.00;66.75
50430;BME280;36359;41.556;-8.418;2022-09-03T07:03:37;100078.47;;;18.59;66.93
50430;BME280;36359;41.556;-8.418;2022-09-03T07:06:13;100082.56;;;18.09;69.51
50430;BME280;36359;41.556;-8.418;2022-09-03T07:08:39;100082.44;;;17.54;70.85
50430;BME280;36359;41.556;-8.418;2022-09-03T07:11:10;100082.06;;;17.64;72.28
50430;BME280;36359;41.556;-8.418;2022-09-03T07:13:46;100073.22;;;17.62;71.79
50430;BME280;36359;41.556;-8.418;2022-09-03T07:16:15;100084.25;;;17.75;72.01
50430;BME280;36359;41.556;-8.418;2022-09-03T07:18:42;100086.28;;;17.60;72.24
50430;BME280;36359;41.556;-8.418;2022-09-03T07:21:37;100088.47;;;17.71;72.77
50430;BME280;36359;41.556;-8.418;2022-09-03T07:24:06;100097.16;;;18.23;71.98
50430;BME280;36359;41.556;-8.418;2022-09-03T07:26:35;100094.34;;;17.68;71.83
50430;BME280;36359;41.556;-8.418;2022-09-03T07:29:02;100091.25;;;18.26;72.71
50430;BME280;36359;41.556;-8.418;2022-09-03T07:31:30;100089.88;;;18.63;69.77
50430;BME280;36359;41.556;-8.418;2022-09-03T07:33:58;100091.00;;;18.82;69.98
50430;BME280;36359;41.556;-8.418;2022-09-03T07:36:26;100085.09;;;19.25;68.88
50430;BME280;36359;41.556;-8.418;2022-09-03T07:38:55;100082.13;;;19.53;67.61
50430;BME280;36359;41.556;-8.418;2022-09-03T07:41:21;100087.59;;;18.73;68.16
50430;BME280;36359;41.556;-8.418;2022-09-03T07:43:47;100091.50;;;18.37;69.77
50430;BME280;36359;41.556;-8.418;2022-09-03T07:46:19;100097.56;;;18.20;71.06
50430;BME280;36359;41.556;-8.418;2022-09-03T07:48:48;100100.22;;;18.00;72.34
50430;BME280;36359;41.556;-8.418;2022-09-03T07:51:15;100089.91;;;18.02;72.51
50430;BME280;36359;41.556;-8.418;2022-09-03T07:53:43;100094.69;;;17.86;73.79
50430;BME280;36359;41.556;-8.418;2022-09-03T07:56:09;100097.19;;;17.81;73.76
50430;BME280;36359;41.556;-8.418;2022-09-03T07:58:36;100095.19;;;17.68;74.72
50430;BME280;36359;41.556;-8.418;2022-09-03T08:01:16;100092.63;;;17.67;75.00
50430;BME280;36359;41.556;-8.418;2022-09-03T08:03:44;100096.00;;;17.62;75.56
50430;BME280;36359;41.556;-8.418;2022-09-03T08:06:11;100102.09;;;17.64;76.23
50430;BME280;36359;41.556;-8.418;2022-09-03T08:08:39;100091.84;;;17.17;78.35
50430;BME280;36359;41.556;-8.418;2022-09-03T08:11:09;100100.66;;;17.34;78.72
50430;BME280;36359;41.556;-8.418;2022-09-03T08:13:39;100094.09;;;17.63;78.16
50430;BME280;36359;41.556;-8.418;2022-09-03T08:16:07;100101.53;;;17.69;76.76
50430;BME280;36359;41.556;-8.418;2022-09-03T08:18:34;100091.78;;;17.95;75.63
50430;BME280;36359;41.556;-8.418;2022-09-03T08:21:11;100092.28;;;17.42;77.88
50430;BME280;36359;41.556;-8.418;2022-09-03T08:23:49;100097.59;;;17.78;76.97
50430;BME280;36359;41.556;-8.418;2022-09-03T08:26:17;100099.66;;;18.11;75.43
50430;BME280;36359;41.556;-8.418;2022-09-03T08:28:43;100108.78;;;17.48;78.39
50430;BME280;36359;41.556;-8.418;2022-09-03T08:31:15;100097.41;;;17.80;76.59
50430;BME280;36359;41.556;-8.418;2022-09-03T08:33:43;100098.97;;;18.02;75.67
50430;BME280;36359;41.556;-8.418;2022-09-03T08:36:15;100101.69;;;17.96;76.23
50430;BME280;36359;41.556;-8.418;2022-09-03T08:38:42;100106.25;;;18.23;74.74
50430;BME280;36359;41.556;-8.418;2022-09-03T08:41:22;100106.44;;;18.15;75.71
50430;BME280;36359;41.556;-8.418;2022-09-03T08:57:48;100113.13;;;20.52;65.89
50430;BME280;36359;41.556;-8.418;2022-09-03T09:00:14;100114.47;;;20.42;66.45
50430;BME280;36359;41.556;-8.418;2022-09-03T09:05:47;100129.72;;;19.60;68.40
50430;BME280;36359;41.556;-8.418;2022-09-03T09:08:40;100127.41;;;19.11;69.84
50430;BME280;36359;41.556;-8.418;2022-09-03T09:13:48;100124.84;;;19.82;68.16
50430;BME280;36359;41.556;-8.418;2022-09-03T09:19:34;100126.31;;;20.56;64.87
50430;BME280;36359;41.556;-8.418;2022-09-03T09:22:10;100128.41;;;19.96;66.03
50430;BME280;36359;41.556;-8.418;2022-09-03T09:24:46;100117.50;;;20.28;65.95
50430;BME280;36359;41.556;-8.418;2022-09-03T09:27:16;100133.09;;;20.40;65.70
50430;BME280;36359;41.556;-8.418;2022-09-03T09:29:45;100129.06;;;20.43;65.24
50430;BME280;36359;41.556;-8.418;2022-09-03T09:32:12;100142.16;;;20.61;64.99
50430;BME280;36359;41.556;-8.418;2022-09-03T09:34:39;100135.00;;;20.85;63.62
50430;BME280;36359;41.556;-8.418;2022-09-03T09:37:11;100141.88;;;20.76;64.16
50430;BME280;36359;41.556;-8.418;2022-09-03T09:39:38;100142.72;;;21.08;62.87
50430;BME280;36359;41.556;-8.418;2022-09-03T09:42:07;100151.88;;;21.59;61.68
50430;BME280;36359;41.556;-8.418;2022-09-03T09:44:38;100148.38;;;21.70;60.09
50430;BME280;36359;41.556;-8.418;2022-09-03T09:47:13;100144.59;;;21.89;60.00
50430;BME280;36359;41.556;-8.418;2022-09-03T09:49:55;100153.38;;;22.23;58.98
50430;BME280;36359;41.556;-8.418;2022-09-03T09:52:22;100150.72;;;21.91;58.73
50430;BME280;36359;41.556;-8.418;2022-09-03T09:54:51;100150.94;;;21.46;59.63
50430;BME280;36359;41.556;-8.418;2022-09-03T09:57:25;100148.72;;;21.80;60.06
50430;BME280;36359;41.556;-8.418;2022-09-03T10:00:09;100147.72;;;21.49;58.04
50430;BME280;36359;41.556;-8.418;2022-09-03T10:02:38;100139.88;;;21.21;58.77
50430;BME280;36359;41.556;-8.418;2022-09-03T10:05:26;100145.41;;;21.15;59.97
50430;BME280;36359;41.556;-8.418;2022-09-03T10:08:01;100147.72;;;21.49;58.79
50430;BME280;36359;41.556;-8.418;2022-09-03T10:10:29;100148.22;;;21.65;60.45
50430;BME280;36359;41.556;-8.418;2022-09-03T10:13:15;100144.44;;;22.03;58.96
50430;BME280;36359;41.556;-8.418;2022-09-03T10:15:50;100142.63;;;22.15;55.43
50430;BME280;36359;41.556;-8.418;2022-09-03T10:18:46;100140.81;;;21.84;54.29
50430;BME280;36359;41.556;-8.418;2022-09-03T10:21:19;100144.41;;;21.84;56.63
50430;BME280;36359;41.556;-8.418;2022-09-03T10:26:23;100134.91;;;21.98;54.01
50430;BME280;36359;41.556;-8.418;2022-09-03T10:28:58;100137.66;;;21.80;53.51
50430;BME280;36359;41.556;-8.418;2022-09-03T10:34:42;100132.06;;;22.05;55.19
50430;BME280;36359;41.556;-8.418;2022-09-03T10:37:21;100128.38;;;21.93;54.77
50430;BME280;36359;41.556;-8.418;2022-09-03T10:42:51;100131.06;;;21.81;52.98
50430;BME280;36359;41.556;-8.418;2022-09-03T10:50:55;100114.66;;;21.86;51.30
50430;BME280;36359;41.556;-8.418;2022-09-03T10:56:14;100107.28;;;22.35;53.87
50430;BME280;36359;41.556;-8.418;2022-09-03T10:59:16;100112.72;;;22.60;54.20
50430;BME280;36359;41.556;-8.418;2022-09-03T11:04:57;100113.69;;;22.66;53.11
50430;BME280;36359;41.556;-8.418;2022-09-03T11:07:35;100100.78;;;22.90;51.60
50430;BME280;36359;41.556;-8.418;2022-09-03T11:10:26;100096.69;;;22.93;50.11
50430;BME280;36359;41.556;-8.418;2022-09-03T11:15:59;100096.38;;;22.40;50.59
50430;BME280;36359;41.556;-8.418;2022-09-03T11:18:28;100095.88;;;21.95;49.61
50430;BME280;36359;41.556;-8.418;2022-09-03T11:21:00;100092.63;;;22.16;49.29
50430;BME280;36359;41.556;-8.418;2022-09-03T11:23:32;100083.59;;;22.09;50.89
50430;BME280;36359;41.556;-8.418;2022-09-03T11:26:10;100083.38;;;22.59;53.21
50430;BME280;36359;41.556;-8.418;2022-09-03T11:28:40;100081.84;;;23.05;50.23
50430;BME280;36359;41.556;-8.418;2022-09-03T11:31:32;100086.25;;;22.34;45.00
50430;BME280;36359;41.556;-8.418;2022-09-03T11:34:12;100085.94;;;22.06;46.24
50430;BME280;36359;41.556;-8.418;2022-09-03T11:36:40;100079.59;;;22.05;46.78
50430;BME280;36359;41.556;-8.418;2022-09-03T11:39:34;100086.19;;;22.04;49.71
50430;BME280;36359;41.556;-8.418;2022-09-03T11:42:04;100081.97;;;22.02;47.60
50430;BME280;36359;41.556;-8.418;2022-09-03T11:44:40;100077.91;;;22.04;48.46
50430;BME280;36359;41.556;-8.418;2022-09-03T11:47:23;100074.53;;;22.39;47.90
50430;BME280;36359;41.556;-8.418;2022-09-03T11:49:51;100074.28;;;22.82;46.90
50430;BME280;36359;41.556;-8.418;2022-09-03T11:52:29;100063.13;;;22.77;46.50
50430;BME280;36359;41.556;-8.418;2022-09-03T11:54:57;100060.19;;;23.14;46.37
50430;BME280;36359;41.556;-8.418;2022-09-03T11:57:30;100056.25;;;23.45;48.43
50430;BME280;36359;41.556;-8.418;2022-09-03T12:00:26;100062.16;;;23.72;48.22
50430;BME280;36359;41.556;-8.418;2022-09-03T12:02:56;100053.22;;;23.70;47.39
50430;BME280;36359;41.556;-8.418;2022-09-03T12:19:02;100052.66;;;24.09;44.06
50430;BME280;36359;41.556;-8.418;2022-09-03T12:21:37;100044.13;;;24.10;42.81
50430;BME280;36359;41.556;-8.418;2022-09-03T12:24:03;100050.06;;;24.31;42.90
50430;BME280;36359;41.556;-8.418;2022-09-03T12:26:28;100047.47;;;24.53;42.10
50430;BME280;36359;41.556;-8.418;2022-09-03T12:28:56;100039.84;;;24.60;43.87
50430;BME280;36359;41.556;-8.418;2022-09-03T12:31:43;100046.06;;;24.67;42.15
50430;BME280;36359;41.556;-8.418;2022-09-03T12:34:13;100044.97;;;24.51;43.74
50430;BME280;36359;41.556;-8.418;2022-09-03T12:39:12;100056.44;;;23.91;43.45
50430;BME280;36359;41.556;-8.418;2022-09-03T12:42:00;100056.94;;;23.64;45.07
50430;BME280;36359;41.556;-8.418;2022-09-03T12:47:01;100044.09;;;24.22;42.95
50430;BME280;36359;41.556;-8.418;2022-09-03T12:49:42;100040.34;;;24.16;43.35
50430;BME280;36359;41.556;-8.418;2022-09-03T12:52:17;100056.44;;;24.72;42.52
50430;BME280;36359;41.556;-8.418;2022-09-03T12:58:10;100047.34;;;24.19;43.17
50430;BME280;36359;41.556;-8.418;2022-09-03T13:00:37;100031.28;;;24.33;42.87
50430;BME280;36359;41.556;-8.418;2022-09-03T13:03:22;100044.06;;;24.62;43.86
50430;BME280;36359;41.556;-8.418;2022-09-03T13:05:54;100039.88;;;24.77;41.55
50430;BME280;36359;41.556;-8.418;2022-09-03T13:08:28;100040.13;;;24.46;44.52
50430;BME280;36359;41.556;-8.418;2022-09-03T13:10:57;100035.31;;;24.42;41.73
50430;BME280;36359;41.556;-8.418;2022-09-03T13:13:26;100032.72;;;24.23;40.97
50430;BME280;36359;41.556;-8.418;2022-09-03T13:30:02;100036.84;;;24.95;38.45
50430;BME280;36359;41.556;-8.418;2022-09-03T13:35:33;100040.13;;;24.92;38.33
50430;BME280;36359;41.556;-8.418;2022-09-03T13:40:55;100036.16;;;24.14;38.45
50430;BME280;36359;41.556;-8.418;2022-09-03T13:43:39;100029.00;;;24.58;39.31
50430;BME280;36359;41.556;-8.418;2022-09-03T13:48:40;100036.34;;;24.98;37.42
50430;BME280;36359;41.556;-8.418;2022-09-03T13:51:39;100025.94;;;24.43;37.68
50430;BME280;36359;41.556;-8.418;2022-09-03T13:54:41;100028.91;;;24.53;38.01
50430;BME280;36359;41.556;-8.418;2022-09-03T14:00:09;100024.28;;;23.90;42.67
50430;BME280;36359;41.556;-8.418;2022-09-03T14:05:59;100034.88;;;24.33;40.01
50430;BME280;36359;41.556;-8.418;2022-09-03T14:16:56;100022.47;;;24.36;40.93
50430;BME280;36359;41.556;-8.418;2022-09-03T14:22:07;100023.38;;;23.02;41.59
50430;BME280;36359;41.556;-8.418;2022-09-03T14:25:02;100026.16;;;24.13;42.70
50430;BME280;36359;41.556;-8.418;2022-09-03T14:27:31;100013.53;;;24.34;40.85
50430;BME280;36359;41.556;-8.418;2022-09-03T14:30:30;100025.41;;;24.75;40.86
50430;BME280;36359;41.556;-8.418;2022-09-03T14:47:26;100010.38;;;25.04;37.79
50430;BME280;36359;41.556;-8.418;2022-09-03T14:50:04;100014.22;;;25.37;39.13
50430;BME280;36359;41.556;-8.418;2022-09-03T14:56:13;100013.31;;;24.81;38.57
50430;BME280;36359;41.556;-8.418;2022-09-03T14:58:24;100003.19;;;25.08;38.54
50430;BME280;36359;41.556;-8.418;2022-09-03T15:01:01;100004.59;;;24.43;39.71
50430;BME280;36359;41.556;-8.418;2022-09-03T15:11:23;100008.28;;;24.95;39.13
50430;BME280;36359;41.556;-8.418;2022-09-03T15:19:17;100001.28;;;25.26;38.84
50430;BME280;36359;41.556;-8.418;2022-09-03T15:22:00;100007.34;;;25.23;39.13
50430;BME280;36359;41.556;-8.418;2022-09-03T15:33:29;100009.78;;;25.02;39.04
50430;BME280;36359;41.556;-8.418;2022-09-03T15:36:19;100006.25;;;24.90;38.55
50430;BME280;36359;41.556;-8.418;2022-09-03T15:44:00;100007.75;;;24.81;38.33
50430;BME280;36359;41.556;-8.418;2022-09-03T15:46:37;99998.66;;;24.52;37.68
50430;BME280;36359;41.556;-8.418;2022-09-03T15:49:09;100002.78;;;24.37;38.36
50430;BME280;36359;41.556;-8.418;2022-09-03T15:52:00;99991.25;;;24.57;39.73
50430;BME280;36359;41.556;-8.418;2022-09-03T15:54:55;99996.41;;;24.08;39.43
50430;BME280;36359;41.556;-8.418;2022-09-03T16:00:20;99995.91;;;24.40;40.34
50430;BME280;36359;41.556;-8.418;2022-09-03T16:08:31;100002.78;;;24.66;40.40
50430;BME280;36359;41.556;-8.418;2022-09-03T16:11:08;99998.06;;;24.66;40.41
50430;BME280;36359;41.556;-8.418;2022-09-03T16:16:27;99997.50;;;24.36;38.83
50430;BME280;36359;41.556;-8.418;2022-09-03T16:19:08;100002.84;;;24.25;39.84
50430;BME280;36359;41.556;-8.418;2022-09-03T16:21:45;99995.56;;;24.36;39.89
50430;BME280;36359;41.556;-8.418;2022-09-03T16:24:25;99995.91;;;24.11;39.11
50430;BME280;36359;41.556;-8.418;2022-09-03T16:27:34;100005.31;;;24.39;41.05
50430;BME280;36359;41.556;-8.418;2022-09-03T16:30:12;99997.97;;;24.44;41.57
50430;BME280;36359;41.556;-8.418;2022-09-03T16:33:00;100014.03;;;24.31;41.21
50430;BME280;36359;41.556;-8.418;2022-09-03T16:38:37;100014.84;;;23.15;42.15
50430;BME280;36359;41.556;-8.418;2022-09-03T16:41:18;100006.41;;;22.44;44.02
50430;BME280;36359;41.556;-8.418;2022-09-03T16:43:56;100019.31;;;22.62;43.56
50430;BME280;36359;41.556;-8.418;2022-09-03T16:52:27;100009.06;;;23.40;43.82
50430;BME280;36359;41.556;-8.418;2022-09-03T17:00:27;100003.16;;;23.48;44.75
50430;BME280;36359;41.556;-8.418;2022-09-03T17:19:31;100019.13;;;22.45;46.32
50430;BME280;36359;41.556;-8.418;2022-09-03T17:24:47;100018.66;;;23.02;45.16
50430;BME280;36359;41.556;-8.418;2022-09-03T17:27:48;100022.28;;;23.03;45.61